createdAt,value
2019-02-28T00:00:47.927Z,860.79
2019-02-28T00:01:47.797Z,860.81
2019-02-28T00:02:47.667Z,860.82
2019-02-28T00:03:47.537Z,860.78
2019-02-28T00:04:47.407Z,860.81
2019-02-28T00:05:47.278Z,860.83
2019-02-28T00:06:47.148Z,860.80
2019-02-28T00:07:49.620Z,860.80
2019-02-28T00:08:46.888Z,860.81
2019-02-28T00:09:46.758Z,860.81
2019-02-28T00:10:46.631Z,860.75
2019-02-28T00:11:46.497Z,860.79
2019-02-28T00:12:48.138Z,860.76
2019-02-28T00:13:46.240Z,860.73
2019-02-28T00:14:46.105Z,860.77
2019-02-28T00:15:45.978Z,860.75
2019-02-28T00:16:45.850Z,860.71
2019-02-28T00:17:45.724Z,860.69
2019-02-28T00:18:49.655Z,860.71
2019-02-28T00:19:45.458Z,860.72
2019-02-28T00:20:45.330Z,860.70
2019-02-28T00:21:45.200Z,860.68
2019-02-28T00:22:48.399Z,860.62
2019-02-28T00:23:44.941Z,860.67
2019-02-28T00:24:44.806Z,860.64
2019-02-28T00:25:44.679Z,860.66
2019-02-28T00:26:47.646Z,860.62
2019-02-28T00:27:44.416Z,860.62
2019-02-28T00:28:44.287Z,860.61
2019-02-28T00:29:44.158Z,860.63
2019-02-28T00:30:44.029Z,860.63
2019-02-28T00:31:49.627Z,860.60
2019-02-28T00:32:43.769Z,860.64
2019-02-28T00:33:43.641Z,860.61
2019-02-28T00:34:43.509Z,860.60
2019-02-28T00:35:44.718Z,860.57
2019-02-28T00:36:43.248Z,860.60
2019-02-28T00:37:43.117Z,860.56
2019-02-28T00:38:44.841Z,860.62
2019-02-28T00:39:42.857Z,860.60
2019-02-28T00:40:42.733Z,860.57
2019-02-28T00:41:44.276Z,860.56
2019-02-28T00:42:42.466Z,860.56
2019-02-28T00:43:42.338Z,860.55
2019-02-28T00:44:42.210Z,860.52
2019-02-28T00:45:42.078Z,860.53
2019-02-28T00:46:45.194Z,860.51
2019-02-28T00:47:41.818Z,860.50
2019-02-28T00:48:41.687Z,860.49
2019-02-28T00:49:41.557Z,860.47
2019-02-28T00:50:41.428Z,860.44
2019-02-28T00:51:41.298Z,860.49
2019-02-28T00:52:41.173Z,860.46
2019-02-28T00:53:41.038Z,860.47
2019-02-28T00:54:44.336Z,860.44
2019-02-28T00:55:40.780Z,860.43
2019-02-28T00:56:40.647Z,860.41
2019-02-28T00:57:40.519Z,860.41
2019-02-28T00:58:40.387Z,860.38
2019-02-28T00:59:40.257Z,860.35
2019-02-28T01:00:40.128Z,860.39
2019-02-28T01:01:39.997Z,860.36
2019-02-28T01:02:39.865Z,860.34
2019-02-28T01:03:39.739Z,860.37
2019-02-28T01:04:39.609Z,860.36
2019-02-28T01:05:39.476Z,860.32
2019-02-28T01:06:41.723Z,860.32
2019-02-28T01:07:39.218Z,860.33
2019-02-28T01:08:39.089Z,860.29
2019-02-28T01:09:38.957Z,860.30
2019-02-28T01:10:39.291Z,860.29
2019-02-28T01:11:38.705Z,860.28
2019-02-28T01:12:38.569Z,860.25
2019-02-28T01:13:38.439Z,860.25
2019-02-28T01:14:38.311Z,860.24
2019-02-28T01:15:44.439Z,860.25
2019-02-28T01:16:38.050Z,860.25
2019-02-28T01:17:37.919Z,860.24
2019-02-28T01:18:37.788Z,860.24
2019-02-28T01:19:41.247Z,860.23
2019-02-28T01:20:37.528Z,860.25
2019-02-28T01:21:37.398Z,860.20
2019-02-28T01:22:37.268Z,860.20
2019-02-28T01:23:37.141Z,860.18
2019-02-28T01:24:37.006Z,860.18
2019-02-28T01:25:37.159Z,860.16
2019-02-28T01:26:36.748Z,860.17
2019-02-28T01:27:36.619Z,860.17
2019-02-28T01:28:36.490Z,860.15
2019-02-28T01:29:36.464Z,860.15
2019-02-28T01:30:37.048Z,860.15
2019-02-28T01:31:36.099Z,860.12
2019-02-28T01:32:35.967Z,860.11
2019-02-28T01:33:35.840Z,860.10
2019-02-28T01:34:35.714Z,860.04
2019-02-28T01:35:37.564Z,860.07
2019-02-28T01:36:35.451Z,860.02
2019-02-28T01:37:35.315Z,860.04
2019-02-28T01:38:35.187Z,860.04
2019-02-28T01:39:35.056Z,860.00
2019-02-28T01:40:35.173Z,859.97
2019-02-28T01:41:34.796Z,859.93
2019-02-28T01:42:34.666Z,859.96
2019-02-28T01:43:34.536Z,859.96
2019-02-28T01:44:35.839Z,859.94
2019-02-28T01:45:34.274Z,859.96
2019-02-28T01:46:34.146Z,859.98
2019-02-28T01:47:34.017Z,859.93
2019-02-28T01:48:33.885Z,859.95
2019-02-28T01:49:33.764Z,859.94
2019-02-28T01:50:33.626Z,859.93
2019-02-28T01:51:36.609Z,859.92
2019-02-28T01:52:33.374Z,859.90
2019-02-28T01:53:33.233Z,859.88
2019-02-28T01:54:33.103Z,859.88
2019-02-28T01:55:32.974Z,859.88
2019-02-28T01:56:34.282Z,859.86
2019-02-28T01:57:32.713Z,859.84
2019-02-28T01:58:32.584Z,859.85
2019-02-28T01:59:32.454Z,859.83
2019-02-28T02:00:32.326Z,859.84
2019-02-28T02:01:32.194Z,859.86
2019-02-28T02:02:32.068Z,859.82
2019-02-28T02:03:31.932Z,859.84
2019-02-28T02:04:32.562Z,859.81
2019-02-28T02:05:31.673Z,859.80
2019-02-28T02:06:31.562Z,859.77
2019-02-28T02:07:33.320Z,859.76
2019-02-28T02:08:31.284Z,859.75
2019-02-28T02:09:31.152Z,859.75
2019-02-28T02:10:31.023Z,859.73
2019-02-28T02:11:30.892Z,859.71
2019-02-28T02:12:31.675Z,859.72
2019-02-28T02:13:30.634Z,859.73
2019-02-28T02:14:30.515Z,859.71
2019-02-28T02:15:30.371Z,859.68
2019-02-28T02:16:30.245Z,859.67
2019-02-28T02:17:32.237Z,859.68
2019-02-28T02:18:29.981Z,859.67
2019-02-28T02:19:29.850Z,859.65
2019-02-28T02:20:29.722Z,859.65
2019-02-28T02:21:31.401Z,859.64
2019-02-28T02:22:29.461Z,859.61
2019-02-28T02:23:29.330Z,859.63
2019-02-28T02:24:29.202Z,859.61
2019-02-28T02:25:29.069Z,859.58
2019-02-28T02:26:28.940Z,859.60
2019-02-28T02:27:28.809Z,859.61
2019-02-28T02:28:28.679Z,859.59
2019-02-28T02:29:28.548Z,859.58
2019-02-28T02:30:28.417Z,859.57
2019-02-28T02:31:29.229Z,859.57
2019-02-28T02:32:28.162Z,859.51
2019-02-28T02:33:28.565Z,859.48
2019-02-28T02:34:29.353Z,859.46
2019-02-28T02:35:27.772Z,859.45
2019-02-28T02:36:27.639Z,859.46
2019-02-28T02:37:30.429Z,859.40
2019-02-28T02:38:27.383Z,859.43
2019-02-28T02:39:27.287Z,859.40
2019-02-28T02:40:27.119Z,859.39
2019-02-28T02:41:26.995Z,859.36
2019-02-28T02:42:26.858Z,859.38
2019-02-28T02:43:26.725Z,859.39
2019-02-28T02:44:30.722Z,859.35
2019-02-28T02:45:26.470Z,859.35
2019-02-28T02:46:26.337Z,859.41
2019-02-28T02:47:31.324Z,859.36
2019-02-28T02:48:26.103Z,859.32
2019-02-28T02:49:25.949Z,859.36
2019-02-28T02:50:34.298Z,859.35
2019-02-28T02:51:25.688Z,859.34
2019-02-28T02:52:30.088Z,859.32
2019-02-28T02:53:25.425Z,859.28
2019-02-28T02:54:25.365Z,859.30
2019-02-28T02:55:28.957Z,859.26
2019-02-28T02:56:25.034Z,859.29
2019-02-28T02:57:24.912Z,859.24
2019-02-28T02:58:28.005Z,859.26
2019-02-28T02:59:24.644Z,859.26
2019-02-28T03:00:24.520Z,859.26
2019-02-28T03:01:24.558Z,859.23
2019-02-28T03:02:28.601Z,859.22
2019-02-28T03:03:24.122Z,859.22
2019-02-28T03:04:24.009Z,859.19
2019-02-28T03:05:23.863Z,859.21
2019-02-28T03:06:23.730Z,859.15
2019-02-28T03:07:24.980Z,859.12
2019-02-28T03:08:23.489Z,859.07
2019-02-28T03:09:23.341Z,859.09
2019-02-28T03:10:23.209Z,859.06
2019-02-28T03:11:24.757Z,859.07
2019-02-28T03:12:22.952Z,859.04
2019-02-28T03:13:22.819Z,859.04
2019-02-28T03:14:22.689Z,859.09
2019-02-28T03:15:26.952Z,859.09
2019-02-28T03:16:22.427Z,859.07
2019-02-28T03:17:22.301Z,859.09
2019-02-28T03:18:22.168Z,859.09
2019-02-28T03:19:22.039Z,859.12
2019-02-28T03:20:21.909Z,859.10
2019-02-28T03:21:21.777Z,859.11
2019-02-28T03:22:28.264Z,859.05
2019-02-28T03:23:21.517Z,859.08
2019-02-28T03:24:21.387Z,859.08
2019-02-28T03:25:27.457Z,859.11
2019-02-28T03:26:21.127Z,859.08
2019-02-28T03:27:20.996Z,859.11
2019-02-28T03:28:20.874Z,859.04
2019-02-28T03:29:20.761Z,859.03
2019-02-28T03:30:29.181Z,859.06
2019-02-28T03:31:20.618Z,859.06
2019-02-28T03:32:20.348Z,859.05
2019-02-28T03:33:27.165Z,859.06
2019-02-28T03:34:20.084Z,859.07
2019-02-28T03:35:19.966Z,859.10
2019-02-28T03:36:19.826Z,859.09
2019-02-28T03:37:19.693Z,859.13
2019-02-28T03:38:19.562Z,859.10
2019-02-28T03:39:24.266Z,859.08
2019-02-28T03:40:19.303Z,859.09
2019-02-28T03:41:19.175Z,859.08
2019-02-28T03:42:19.048Z,859.09
2019-02-28T03:43:18.918Z,859.15
2019-02-28T03:44:21.296Z,859.13
2019-02-28T03:45:18.656Z,859.14
2019-02-28T03:46:18.524Z,859.13
2019-02-28T03:47:22.480Z,859.15
2019-02-28T03:48:18.264Z,859.09
2019-02-28T03:49:19.874Z,859.14
2019-02-28T03:50:21.998Z,859.13
2019-02-28T03:51:17.872Z,859.13
2019-02-28T03:52:17.769Z,859.15
2019-02-28T03:53:19.962Z,859.15
2019-02-28T03:54:17.482Z,859.14
2019-02-28T03:55:17.351Z,859.12
2019-02-28T03:56:17.220Z,859.11
2019-02-28T03:57:17.098Z,859.09
2019-02-28T03:58:16.959Z,859.07
2019-02-28T03:59:18.814Z,859.13
2019-02-28T04:00:16.769Z,859.09
2019-02-28T04:01:16.567Z,859.09
2019-02-28T04:02:20.991Z,859.11
2019-02-28T04:03:16.310Z,859.13
2019-02-28T04:04:16.177Z,859.14
2019-02-28T04:05:16.047Z,859.14
2019-02-28T04:06:15.929Z,859.16
2019-02-28T04:07:16.978Z,859.13
2019-02-28T04:08:15.661Z,859.11
2019-02-28T04:09:15.574Z,859.11
2019-02-28T04:10:16.634Z,859.07
2019-02-28T04:11:15.269Z,859.12
2019-02-28T04:12:15.134Z,859.09
2019-02-28T04:13:19.187Z,859.10
2019-02-28T04:14:14.877Z,859.07
2019-02-28T04:15:14.742Z,859.09
2019-02-28T04:16:14.622Z,859.09
2019-02-28T04:17:14.483Z,859.09
2019-02-28T04:18:14.351Z,859.11
2019-02-28T04:19:21.349Z,859.12
2019-02-28T04:20:14.093Z,859.10
2019-02-28T04:21:13.964Z,859.11
2019-02-28T04:22:13.831Z,859.10
2019-02-28T04:23:13.701Z,859.11
2019-02-28T04:24:14.104Z,859.11
2019-02-28T04:25:13.444Z,859.13
2019-02-28T04:26:13.308Z,859.09
2019-02-28T04:27:13.176Z,859.11
2019-02-28T04:28:17.292Z,859.08
2019-02-28T04:29:12.917Z,859.08
2019-02-28T04:30:12.793Z,859.04
2019-02-28T04:31:18.730Z,859.04
2019-02-28T04:32:12.533Z,859.05
2019-02-28T04:33:12.401Z,859.06
2019-02-28T04:34:13.445Z,859.06
2019-02-28T04:35:12.139Z,859.03
2019-02-28T04:36:12.003Z,859.01
2019-02-28T04:37:11.873Z,859.01
2019-02-28T04:38:11.742Z,858.95
2019-02-28T04:39:11.611Z,858.96
2019-02-28T04:40:11.501Z,858.94
2019-02-28T04:41:11.352Z,858.96
2019-02-28T04:42:11.222Z,858.98
2019-02-28T04:43:11.092Z,858.97
2019-02-28T04:44:10.968Z,858.93
2019-02-28T04:45:10.833Z,858.96
2019-02-28T04:46:10.826Z,858.95
2019-02-28T04:47:10.567Z,858.92
2019-02-28T04:48:13.679Z,858.95
2019-02-28T04:49:10.309Z,858.95
2019-02-28T04:50:10.179Z,858.95
2019-02-28T04:51:10.047Z,858.96
2019-02-28T04:52:11.847Z,859.02
2019-02-28T04:53:09.788Z,859.06
2019-02-28T04:54:09.658Z,858.99
2019-02-28T04:55:09.527Z,858.98
2019-02-28T04:56:11.426Z,858.97
2019-02-28T04:57:09.266Z,858.97
2019-02-28T04:58:09.135Z,858.97
2019-02-28T04:59:09.005Z,858.99
2019-02-28T05:00:08.873Z,859.05
2019-02-28T05:01:09.222Z,859.03
2019-02-28T05:02:08.614Z,859.08
2019-02-28T05:03:08.483Z,859.04
2019-02-28T05:04:08.354Z,858.98
2019-02-28T05:05:12.096Z,859.00
2019-02-28T05:06:08.092Z,859.00
2019-02-28T05:07:07.988Z,859.01
2019-02-28T05:08:07.830Z,859.00
2019-02-28T05:09:10.672Z,859.00
2019-02-28T05:10:07.568Z,858.99
2019-02-28T05:11:07.439Z,859.01
2019-02-28T05:12:07.311Z,859.03
2019-02-28T05:13:07.184Z,859.02
2019-02-28T05:14:07.049Z,858.99
2019-02-28T05:15:06.915Z,858.99
2019-02-28T05:16:09.392Z,859.00
2019-02-28T05:17:06.656Z,858.98
2019-02-28T05:18:06.529Z,858.99
2019-02-28T05:19:06.396Z,859.02
2019-02-28T05:20:07.331Z,858.98
2019-02-28T05:21:06.144Z,859.01
2019-02-28T05:22:06.004Z,858.98
2019-02-28T05:23:05.875Z,858.99
2019-02-28T05:24:07.770Z,858.96
2019-02-28T05:25:05.621Z,858.96
2019-02-28T05:26:05.481Z,858.99
2019-02-28T05:27:05.354Z,858.95
2019-02-28T05:28:06.659Z,858.97
2019-02-28T05:29:05.090Z,858.99
2019-02-28T05:30:04.959Z,858.95
2019-02-28T05:31:06.392Z,858.95
2019-02-28T05:32:04.700Z,858.92
2019-02-28T05:33:06.634Z,858.89
2019-02-28T05:34:04.438Z,858.87
2019-02-28T05:35:04.315Z,858.89
2019-02-28T05:36:04.426Z,858.91
2019-02-28T05:37:04.046Z,858.85
2019-02-28T05:38:03.916Z,858.91
2019-02-28T05:39:03.786Z,858.92
2019-02-28T05:40:06.159Z,858.94
2019-02-28T05:41:03.526Z,858.93
2019-02-28T05:42:03.400Z,858.93
2019-02-28T05:43:03.267Z,858.94
2019-02-28T05:44:05.882Z,858.97
2019-02-28T05:45:03.004Z,858.94
2019-02-28T05:46:02.872Z,858.90
2019-02-28T05:47:02.742Z,858.90
2019-02-28T05:48:03.887Z,858.88
2019-02-28T05:49:02.479Z,858.88
2019-02-28T05:50:02.351Z,858.89
2019-02-28T05:51:02.220Z,858.91
2019-02-28T05:52:03.893Z,858.92
2019-02-28T05:53:03.017Z,858.93
2019-02-28T05:54:01.833Z,858.91
2019-02-28T05:55:01.698Z,858.91
2019-02-28T05:56:01.576Z,858.93
2019-02-28T05:57:01.438Z,858.89
2019-02-28T05:58:01.306Z,858.88
2019-02-28T05:59:01.176Z,858.87
2019-02-28T06:00:02.038Z,858.84
2019-02-28T06:01:00.917Z,858.84
2019-02-28T06:02:00.785Z,858.81
2019-02-28T06:03:02.567Z,858.80
2019-02-28T06:04:04.029Z,858.83
2019-02-28T06:05:00.392Z,858.83
2019-02-28T06:06:00.265Z,858.81
2019-02-28T06:07:00.130Z,858.83
2019-02-28T06:08:00.485Z,858.83
2019-02-28T06:08:59.872Z,858.84
2019-02-28T06:09:59.740Z,858.85
2019-02-28T06:11:01.370Z,858.85
2019-02-28T06:12:03.398Z,858.84
2019-02-28T06:12:59.348Z,858.87
2019-02-28T06:13:59.219Z,858.91
2019-02-28T06:15:03.250Z,858.89
2019-02-28T06:15:58.963Z,858.88
2019-02-28T06:16:58.830Z,858.88
2019-02-28T06:17:58.701Z,858.87
2019-02-28T06:18:58.569Z,858.87
2019-02-28T06:19:58.439Z,858.86
2019-02-28T06:20:58.309Z,858.88
2019-02-28T06:21:59.470Z,858.86
2019-02-28T06:22:58.175Z,858.86
2019-02-28T06:23:57.914Z,858.88
2019-02-28T06:24:57.786Z,858.84
2019-02-28T06:25:59.316Z,858.84
2019-02-28T06:26:57.525Z,858.89
2019-02-28T06:27:57.398Z,858.87
2019-02-28T06:28:57.265Z,858.89
2019-02-28T06:29:57.133Z,858.90
2019-02-28T06:30:57.002Z,858.90
2019-02-28T06:31:56.883Z,858.90
2019-02-28T06:32:59.196Z,858.91
2019-02-28T06:33:56.611Z,858.93
2019-02-28T06:34:56.481Z,858.94
2019-02-28T06:35:56.353Z,858.93
2019-02-28T06:36:56.220Z,858.97
2019-02-28T06:37:56.090Z,858.98
2019-02-28T06:38:55.960Z,859.04
2019-02-28T06:39:58.610Z,858.97
2019-02-28T06:40:55.699Z,859.03
2019-02-28T06:41:55.566Z,859.05
2019-02-28T06:42:55.922Z,859.08
2019-02-28T06:43:55.336Z,859.08
2019-02-28T06:44:55.187Z,859.06
2019-02-28T06:45:55.046Z,859.02
2019-02-28T06:46:54.915Z,859.02
2019-02-28T06:47:54.788Z,858.97
2019-02-28T06:49:01.146Z,859.02
2019-02-28T06:49:54.523Z,858.94
2019-02-28T06:50:54.395Z,858.95
2019-02-28T06:51:54.264Z,858.99
2019-02-28T06:52:56.396Z,858.97
2019-02-28T06:53:54.015Z,858.99
2019-02-28T06:54:54.640Z,859.02
2019-02-28T06:55:53.743Z,859.03
2019-02-28T06:56:55.407Z,859.05
2019-02-28T06:57:53.482Z,859.02
2019-02-28T06:58:53.352Z,859.04
2019-02-28T06:59:53.221Z,859.04
2019-02-28T07:00:53.094Z,859.05
2019-02-28T07:01:56.576Z,859.06
2019-02-28T07:02:52.831Z,859.04
2019-02-28T07:03:53.589Z,859.04
2019-02-28T07:04:52.573Z,859.06
2019-02-28T07:05:52.440Z,859.05
2019-02-28T07:06:52.309Z,859.07
2019-02-28T07:07:52.181Z,859.04
2019-02-28T07:08:52.050Z,859.05
2019-02-28T07:09:51.919Z,859.03
2019-02-28T07:10:51.820Z,859.01
2019-02-28T07:11:54.898Z,858.98
2019-02-28T07:12:51.529Z,859.00
2019-02-28T07:13:51.398Z,858.99
2019-02-28T07:14:51.269Z,858.99
2019-02-28T07:15:51.138Z,859.02
2019-02-28T07:16:51.010Z,859.01
2019-02-28T07:17:50.877Z,859.01
2019-02-28T07:18:53.844Z,858.96
2019-02-28T07:19:50.622Z,858.96
2019-02-28T07:20:50.489Z,858.95
2019-02-28T07:21:50.359Z,858.91
2019-02-28T07:22:54.154Z,858.94
2019-02-28T07:23:50.647Z,858.96
2019-02-28T07:24:49.971Z,858.96
2019-02-28T07:25:49.839Z,858.95
2019-02-28T07:26:52.280Z,858.99
2019-02-28T07:27:49.623Z,859.00
2019-02-28T07:28:49.450Z,858.98
2019-02-28T07:29:49.362Z,858.97
2019-02-28T07:30:50.338Z,858.98
2019-02-28T07:31:49.060Z,859.00
2019-02-28T07:32:48.932Z,858.99
2019-02-28T07:33:48.806Z,858.98
2019-02-28T07:34:48.673Z,859.02
2019-02-28T07:35:48.542Z,859.03
2019-02-28T07:36:48.414Z,859.04
2019-02-28T07:37:53.380Z,858.98
2019-02-28T07:38:48.157Z,858.94
2019-02-28T07:39:48.028Z,858.99
2019-02-28T07:40:49.454Z,859.03
2019-02-28T07:41:47.773Z,859.04
2019-02-28T07:42:47.642Z,859.07
2019-02-28T07:43:47.515Z,859.04
2019-02-28T07:44:47.387Z,859.08
2019-02-28T07:45:47.272Z,859.07
2019-02-28T07:46:47.132Z,859.12
2019-02-28T07:47:51.762Z,859.11
2019-02-28T07:48:46.875Z,859.10
2019-02-28T07:49:46.750Z,859.07
2019-02-28T07:50:47.649Z,859.09
2019-02-28T07:51:46.491Z,859.03
2019-02-28T07:52:46.648Z,859.09
2019-02-28T07:53:46.240Z,859.12
2019-02-28T07:54:47.568Z,859.14
2019-02-28T07:55:45.998Z,859.11
2019-02-28T07:56:45.856Z,859.12
2019-02-28T07:57:50.988Z,859.12
2019-02-28T07:58:45.606Z,859.12
2019-02-28T07:59:45.480Z,859.19
2019-02-28T08:00:45.428Z,859.19
2019-02-28T08:01:45.226Z,859.22
2019-02-28T08:02:45.110Z,859.24
2019-02-28T08:03:45.007Z,859.20
2019-02-28T08:04:44.850Z,859.23
2019-02-28T08:05:44.721Z,859.19
2019-02-28T08:06:44.597Z,859.16
2019-02-28T08:07:50.229Z,859.16
2019-02-28T08:08:44.349Z,859.10
2019-02-28T08:09:44.215Z,859.10
2019-02-28T08:10:44.091Z,859.11
2019-02-28T08:11:43.973Z,859.09
2019-02-28T08:12:43.848Z,859.11
2019-02-28T08:13:43.716Z,859.08
2019-02-28T08:14:47.107Z,859.08
2019-02-28T08:15:43.464Z,859.10
2019-02-28T08:16:43.346Z,859.11
2019-02-28T08:17:43.920Z,859.10
2019-02-28T08:18:43.092Z,859.12
2019-02-28T08:19:42.967Z,859.10
2019-02-28T08:20:42.859Z,859.10
2019-02-28T08:21:46.903Z,859.13
2019-02-28T08:22:42.591Z,859.10
2019-02-28T08:23:42.465Z,859.11
2019-02-28T08:24:42.341Z,859.05
2019-02-28T08:25:42.812Z,859.08
2019-02-28T08:26:43.701Z,859.10
2019-02-28T08:27:41.972Z,859.11
2019-02-28T08:28:41.846Z,859.09
2019-02-28T08:29:44.738Z,859.12
2019-02-28T08:30:41.592Z,859.13
2019-02-28T08:31:41.471Z,859.16
2019-02-28T08:32:44.028Z,859.15
2019-02-28T08:33:41.227Z,859.15
2019-02-28T08:34:42.927Z,859.17
2019-02-28T08:35:40.973Z,859.13
2019-02-28T08:36:43.857Z,859.19
2019-02-28T08:37:40.727Z,859.16
2019-02-28T08:38:40.602Z,859.19
2019-02-28T08:39:41.190Z,859.22
2019-02-28T08:40:40.354Z,859.18
2019-02-28T08:41:40.233Z,859.17
2019-02-28T08:42:40.107Z,859.18
2019-02-28T08:43:39.982Z,859.16
2019-02-28T08:44:39.866Z,859.17
2019-02-28T08:45:39.735Z,859.18
2019-02-28T08:46:39.613Z,859.15
2019-02-28T08:47:39.493Z,859.12
2019-02-28T08:48:39.363Z,859.17
2019-02-28T08:49:44.566Z,859.12
2019-02-28T08:50:40.930Z,859.11
2019-02-28T08:51:38.994Z,859.09
2019-02-28T08:52:41.000Z,859.05
2019-02-28T08:53:38.747Z,859.03
2019-02-28T08:54:38.627Z,859.00
2019-02-28T08:55:39.462Z,858.96
2019-02-28T08:56:38.380Z,858.93
2019-02-28T08:57:38.255Z,858.93
2019-02-28T08:58:38.502Z,858.91
2019-02-28T08:59:38.013Z,858.92
2019-02-28T09:00:37.895Z,858.87
2019-02-28T09:01:41.276Z,858.84
2019-02-28T09:02:37.642Z,858.84
2019-02-28T09:03:37.523Z,858.83
2019-02-28T09:04:41.211Z,858.85
2019-02-28T09:05:37.281Z,858.80
2019-02-28T09:06:40.511Z,858.85
2019-02-28T09:07:37.033Z,858.82
2019-02-28T09:08:36.917Z,858.85
2019-02-28T09:09:36.790Z,858.81
2019-02-28T09:10:37.476Z,858.84
2019-02-28T09:11:36.545Z,858.87
2019-02-28T09:12:36.422Z,858.84
2019-02-28T09:13:36.307Z,858.85
2019-02-28T09:14:36.181Z,858.84
2019-02-28T09:15:36.056Z,858.87
2019-02-28T09:16:36.637Z,858.83
2019-02-28T09:17:37.814Z,858.83
2019-02-28T09:18:35.697Z,858.80
2019-02-28T09:19:36.162Z,858.80
2019-02-28T09:20:35.454Z,858.83
2019-02-28T09:21:35.326Z,858.81
2019-02-28T09:22:35.225Z,858.79
2019-02-28T09:23:37.527Z,858.76
2019-02-28T09:24:34.967Z,858.78
2019-02-28T09:25:34.842Z,858.76
2019-02-28T09:26:34.721Z,858.78
2019-02-28T09:27:35.297Z,858.79
2019-02-28T09:28:34.477Z,858.81
2019-02-28T09:29:34.354Z,858.83
2019-02-28T09:30:34.235Z,858.81
2019-02-28T09:31:38.715Z,858.75
2019-02-28T09:32:33.992Z,858.75
2019-02-28T09:33:33.873Z,858.77
2019-02-28T09:34:33.751Z,858.79
2019-02-28T09:35:33.631Z,858.77
2019-02-28T09:36:33.512Z,858.75
2019-02-28T09:37:33.387Z,858.75
2019-02-28T09:38:33.266Z,858.74
2019-02-28T09:39:33.146Z,858.70
2019-02-28T09:40:33.036Z,858.67
2019-02-28T09:41:32.903Z,858.72
2019-02-28T09:42:32.784Z,858.60
2019-02-28T09:43:32.663Z,858.66
2019-02-28T09:44:32.548Z,858.65
2019-02-28T09:45:32.420Z,858.69
2019-02-28T09:46:32.302Z,858.65
2019-02-28T09:47:32.182Z,858.70
2019-02-28T09:48:34.040Z,858.68
2019-02-28T09:49:32.728Z,858.61
2019-02-28T09:50:33.154Z,858.63
2019-02-28T09:51:32.750Z,858.65
2019-02-28T09:52:31.585Z,858.62
2019-02-28T09:53:31.466Z,858.61
2019-02-28T09:54:31.343Z,858.60
2019-02-28T09:55:34.569Z,858.62
2019-02-28T09:56:31.107Z,858.65
2019-02-28T09:57:30.986Z,858.67
2019-02-28T09:58:30.864Z,858.63
2019-02-28T09:59:30.745Z,858.62
2019-02-28T10:00:30.624Z,858.65
2019-02-28T10:01:30.506Z,858.66
2019-02-28T10:02:30.387Z,858.62
2019-02-28T10:03:30.265Z,858.62
2019-02-28T10:04:31.161Z,858.62
2019-02-28T10:05:30.036Z,858.64
2019-02-28T10:06:29.905Z,858.66
2019-02-28T10:07:29.785Z,858.69
2019-02-28T10:08:29.667Z,858.72
2019-02-28T10:09:29.544Z,858.72
2019-02-28T10:10:29.425Z,858.70
2019-02-28T10:11:31.733Z,858.72
2019-02-28T10:12:29.185Z,858.71
2019-02-28T10:13:30.922Z,858.68
2019-02-28T10:14:29.761Z,858.64
2019-02-28T10:15:28.825Z,858.69
2019-02-28T10:16:28.705Z,858.68
2019-02-28T10:17:28.888Z,858.65
2019-02-28T10:18:28.733Z,858.67
2019-02-28T10:19:28.344Z,858.67
2019-02-28T10:20:28.639Z,858.65
2019-02-28T10:21:28.103Z,858.64
2019-02-28T10:22:27.981Z,858.64
2019-02-28T10:23:27.875Z,858.62
2019-02-28T10:24:28.381Z,858.64
2019-02-28T10:25:27.618Z,858.62
2019-02-28T10:26:27.504Z,858.55
2019-02-28T10:27:27.686Z,858.59
2019-02-28T10:28:27.259Z,858.59
2019-02-28T10:29:27.138Z,858.60
2019-02-28T10:30:31.569Z,858.62
2019-02-28T10:31:35.351Z,858.59
2019-02-28T10:32:26.778Z,858.60
2019-02-28T10:33:26.654Z,858.59
2019-02-28T10:34:27.468Z,858.59
2019-02-28T10:35:26.467Z,858.56
2019-02-28T10:36:26.295Z,858.61
2019-02-28T10:37:26.174Z,858.61
2019-02-28T10:38:26.055Z,858.58
2019-02-28T10:39:25.934Z,858.56
2019-02-28T10:40:25.817Z,858.56
2019-02-28T10:41:28.107Z,858.61
2019-02-28T10:42:25.575Z,858.57
2019-02-28T10:43:25.455Z,858.57
2019-02-28T10:44:30.327Z,858.51
2019-02-28T10:45:25.215Z,858.51
2019-02-28T10:46:25.094Z,858.53
2019-02-28T10:47:28.155Z,858.57
2019-02-28T10:48:24.853Z,858.58
2019-02-28T10:49:24.939Z,858.59
2019-02-28T10:50:25.960Z,858.60
2019-02-28T10:51:24.496Z,858.58
2019-02-28T10:52:26.905Z,858.58
2019-02-28T10:53:24.256Z,858.60
2019-02-28T10:54:24.137Z,858.63
2019-02-28T10:55:24.018Z,858.63
2019-02-28T10:56:23.897Z,858.61
2019-02-28T10:57:23.780Z,858.62
2019-02-28T10:58:23.655Z,858.65
2019-02-28T10:59:24.401Z,858.63
2019-02-28T11:00:23.420Z,858.62
2019-02-28T11:01:23.297Z,858.61
2019-02-28T11:02:23.176Z,858.60
2019-02-28T11:03:23.059Z,858.65
2019-02-28T11:04:22.940Z,858.63
2019-02-28T11:05:22.818Z,858.60
2019-02-28T11:06:25.246Z,858.61
2019-02-28T11:07:22.578Z,858.61
2019-02-28T11:08:22.461Z,858.58
2019-02-28T11:09:25.244Z,858.63
2019-02-28T11:10:22.222Z,858.62
2019-02-28T11:11:22.101Z,858.66
2019-02-28T11:12:23.837Z,858.60
2019-02-28T11:13:21.863Z,858.59
2019-02-28T11:14:21.742Z,858.54
2019-02-28T11:15:21.625Z,858.54
2019-02-28T11:16:23.626Z,858.57
2019-02-28T11:17:21.387Z,858.57
2019-02-28T11:18:21.268Z,858.53
2019-02-28T11:19:21.149Z,858.53
2019-02-28T11:20:22.450Z,858.56
2019-02-28T11:21:20.909Z,858.55
2019-02-28T11:22:20.790Z,858.52
2019-02-28T11:23:20.676Z,858.53
2019-02-28T11:24:23.619Z,858.51
2019-02-28T11:25:20.436Z,858.53
2019-02-28T11:26:20.316Z,858.56
2019-02-28T11:27:22.847Z,858.59
2019-02-28T11:28:20.082Z,858.59
2019-02-28T11:29:19.959Z,858.63
2019-02-28T11:30:19.842Z,858.64
2019-02-28T11:31:20.103Z,858.63
2019-02-28T11:32:19.605Z,858.64
2019-02-28T11:33:19.483Z,858.65
2019-02-28T11:34:19.365Z,858.68
2019-02-28T11:35:20.070Z,858.67
2019-02-28T11:36:19.128Z,858.67
2019-02-28T11:37:19.013Z,858.62
2019-02-28T11:38:21.525Z,858.63
2019-02-28T11:39:18.777Z,858.58
2019-02-28T11:40:18.752Z,858.54
2019-02-28T11:41:19.561Z,858.48
2019-02-28T11:42:18.414Z,858.48
2019-02-28T11:43:18.294Z,858.51
2019-02-28T11:44:18.175Z,858.58
2019-02-28T11:45:18.614Z,858.56
2019-02-28T11:46:18.770Z,858.54
2019-02-28T11:47:17.819Z,858.52
2019-02-28T11:48:20.112Z,858.49
2019-02-28T11:49:17.580Z,858.53
2019-02-28T11:50:17.460Z,858.50
2019-02-28T11:51:17.747Z,858.49
2019-02-28T11:52:17.221Z,858.48
2019-02-28T11:53:19.037Z,858.46
2019-02-28T11:54:16.985Z,858.42
2019-02-28T11:55:20.165Z,858.43
2019-02-28T11:56:16.745Z,858.48
2019-02-28T11:57:16.623Z,858.43
2019-02-28T11:58:17.879Z,858.40
2019-02-28T11:59:16.384Z,858.37
2019-02-28T12:00:16.264Z,858.36
2019-02-28T12:01:16.144Z,858.36
2019-02-28T12:02:16.025Z,858.34
2019-02-28T12:03:15.904Z,858.32
2019-02-28T12:04:15.785Z,858.28
2019-02-28T12:05:16.517Z,858.30
2019-02-28T12:06:15.568Z,858.28
2019-02-28T12:07:15.424Z,858.29
2019-02-28T12:08:15.307Z,858.25
2019-02-28T12:09:16.319Z,858.20
2019-02-28T12:10:15.064Z,858.18
2019-02-28T12:11:14.944Z,858.21
2019-02-28T12:12:14.862Z,858.19
2019-02-28T12:13:16.552Z,858.18
2019-02-28T12:14:14.584Z,858.14
2019-02-28T12:15:14.776Z,858.13
2019-02-28T12:16:16.266Z,858.11
2019-02-28T12:17:15.112Z,858.05
2019-02-28T12:18:14.106Z,858.07
2019-02-28T12:19:15.911Z,858.02
2019-02-28T12:20:13.870Z,858.06
2019-02-28T12:21:13.746Z,858.00
2019-02-28T12:22:13.626Z,858.02
2019-02-28T12:23:13.515Z,857.98
2019-02-28T12:24:13.390Z,858.00
2019-02-28T12:25:13.271Z,858.02
2019-02-28T12:26:14.339Z,858.04
2019-02-28T12:27:13.032Z,858.04